Time;durP1;ratioP1;P1;durP2;ratioP2;P2;SDS_P1;SDS_P2;PMS_P1;PMS_P2;Temp;Humidity;BMP_temperature;BMP_pressure;BME280_temperature;BME280_humidity;BME280_pressure;Samples;Min_cycle;Max_cycle;Signal;HPM_P1;HPM_P2
2022/08/10 00:00:37;;;;;;;8.27;2.72;;;;;;;15.09;84.72;102645.09;1035606;28;20045;-73
2022/08/10 00:01:09;;;;;;;30.33;3.10;;;;;;;15.03;85.99;102645.88;1035002;28;20042;-74
2022/08/10 00:01:40;;;;;;;9.15;2.83;;;;;;;15.05;85.64;102635.78;1035726;28;20037;-74
2022/08/10 00:02:12;;;;;;;21.58;2.92;;;;;;;15.09;85.63;102645.09;1035651;28;20050;-74
2022/08/10 00:02:44;;;;;;;18.08;3.60;;;;;;;15.03;85.40;102645.06;1030989;28;20994;-74
2022/08/10 00:03:16;;;;;;;23.05;2.78;;;;;;;14.98;85.75;102642.97;1031372;28;20042;-73
2022/08/10 00:03:47;;;;;;;9.15;2.30;;;;;;;14.83;86.07;102640.47;1030846;28;20038;-74
2022/08/10 00:04:20;;;;;;;3.60;2.05;;;;;;;14.91;86.03;102636.78;1031707;28;20046;-74
2022/08/10 00:04:53;;;;;;;5.75;1.63;;;;;;;15.00;87.24;102646.28;1035081;28;20107;-74
2022/08/10 00:05:25;;;;;;;8.35;1.90;;;;;;;15.07;86.81;102635.59;1035923;28;20042;-73
2022/08/10 00:06:13;;;;;;;2.97;1.92;;;;;;;14.82;86.76;102640.66;1034880;28;20046;-74
2022/08/10 00:06:45;;;;;;;4.75;1.73;;;;;;;14.88;86.73;102636.34;1031015;28;20049;-74
2022/08/10 00:07:17;;;;;;;3.20;1.83;;;;;;;14.97;86.48;102641.31;1031533;28;20081;-74
2022/08/10 00:07:49;;;;;;;4.95;1.95;;;;;;;14.97;86.69;102637.81;1030521;28;20105;-74
2022/08/10 00:08:23;;;;;;;2.83;1.65;;;;;;;15.00;86.46;102640.09;1031710;28;20093;-73
2022/08/10 00:08:55;;;;;;;7.78;1.77;;;;;;;15.00;86.13;102635.56;1031195;28;20049;-74
2022/08/10 00:09:27;;;;;;;1.50;1.40;;;;;;;15.15;85.56;102633.53;1026228;28;20097;-74
2022/08/10 00:09:59;;;;;;;4.78;1.33;;;;;;;15.13;85.23;102638.28;1023158;29;20047;-74
2022/08/10 00:10:30;;;;;;;1.60;1.50;;;;;;;15.28;84.74;102638.09;1024039;28;20043;-74
2022/08/10 00:11:02;;;;;;;4.07;1.60;;;;;;;15.24;84.97;102631.50;1027016;28;20035;-74
2022/08/10 00:11:34;;;;;;;2.65;1.50;;;;;;;15.12;85.57;102635.81;1027561;28;20131;-74
2022/08/10 00:12:07;;;;;;;2.55;1.58;;;;;;;15.06;85.44;102633.91;1031335;28;20083;-74
2022/08/10 00:12:39;;;;;;;1.40;1.25;;;;;;;15.07;85.36;102633.75;1029836;28;20126;-74
2022/08/10 00:13:25;;;;;;;8.80;1.40;;;;;;;15.11;85.84;102635.00;1030638;28;20092;-74
2022/08/10 00:13:56;;;;;;;1.10;1.10;;;;;;;15.17;85.68;102637.88;1031035;28;20475;-74
2022/08/10 00:14:31;;;;;;;1.63;1.45;;;;;;;15.08;85.73;102642.63;1031011;28;20038;-74
2022/08/10 00:15:04;;;;;;;1.60;1.38;;;;;;;15.05;85.95;102638.44;1031297;28;20034;-74
2022/08/10 00:15:36;;;;;;;3.05;1.58;;;;;;;15.09;85.93;102634.38;1026794;28;20073;-74
2022/08/10 00:16:24;;;;;;;1.33;1.23;;;;;;;15.15;86.04;102627.34;1030265;28;20061;-74
2022/08/10 00:16:56;;;;;;;1.92;1.40;;;;;;;15.12;85.78;102639.31;1030852;28;20047;-74
2022/08/10 00:17:28;;;;;;;1.35;1.08;;;;;;;15.14;85.59;102631.06;1034106;28;20046;-74
2022/08/10 00:18:00;;;;;;;1.52;1.42;;;;;;;15.13;85.52;102635.59;1035494;28;20099;-74
2022/08/10 00:18:31;;;;;;;2.80;1.13;;;;;;;15.03;85.80;102637.84;1034985;28;20049;-73
2022/08/10 00:19:06;;;;;;;1.35;1.25;;;;;;;15.08;85.96;102637.25;1035091;28;20061;-74
2022/08/10 00:19:40;;;;;;;1.75;1.33;;;;;;;15.11;85.72;102637.66;1030925;28;20046;-74
2022/08/10 00:20:31;;;;;;;1.30;1.30;;;;;;;15.18;85.14;102635.00;1030969;28;20513;-74
2022/08/10 00:21:05;;;;;;;1.50;1.40;;;;;;;15.19;85.10;102627.78;1031151;28;20042;-74
2022/08/10 00:21:36;;;;;;;1.20;1.10;;;;;;;15.14;85.47;102634.56;1030756;28;20056;-74
2022/08/10 00:22:10;;;;;;;5.60;1.65;;;;;;;15.18;85.65;102636.84;1030981;28;20042;-74
2022/08/10 00:22:47;;;;;;;1.23;1.13;;;;;;;15.19;85.31;102643.88;1025855;28;20047;-74
2022/08/10 00:23:28;;;;;;;1.50;1.40;;;;;;;15.23;84.76;102635.22;1025528;28;20526;-74
2022/08/10 00:23:59;;;;;;;1.15;1.05;;;;;;;15.24;84.70;102641.41;1027565;28;20558;-73
2022/08/10 00:24:31;;;;;;;2.10;1.33;;;;;;;15.27;84.63;102638.31;1029349;28;20043;-74
2022/08/10 00:25:04;;;;;;;1.50;1.40;;;;;;;15.27;84.64;102641.00;1032947;28;20069;-74
2022/08/10 00:25:36;;;;;;;2.25;1.20;;;;;;;15.27;84.35;102644.50;1031510;28;20052;-74
2022/08/10 00:26:07;;;;;;;2.03;1.75;;;;;;;15.24;84.65;102636.03;1030725;28;20053;-74
2022/08/10 00:26:39;;;;;;;3.17;1.27;;;;;;;15.19;84.64;102641.19;1031030;28;20124;-73
2022/08/10 00:27:30;;;;;;;2.15;1.45;;;;;;;15.15;84.77;102636.22;1032463;28;20677;-73
2022/08/10 00:28:22;;;;;;;1.65;1.20;;;;;;;15.19;84.82;102643.88;1033025;28;20125;-73
2022/08/10 00:28:54;;;;;;;1.55;1.45;;;;;;;15.12;84.68;102638.50;1035140;28;20405;-74
2022/08/10 00:29:26;;;;;;;1.52;1.42;;;;;;;15.13;84.72;102643.66;1035718;28;20050;-74
2022/08/10 00:29:58;;;;;;;3.45;1.55;;;;;;;15.12;84.78;102633.94;1035328;28;20037;-74
2022/08/10 00:30:29;;;;;;;2.40;1.48;;;;;;;15.12;84.93;102633.94;1031049;28;20041;-74
2022/08/10 00:31:01;;;;;;;7.20;1.85;;;;;;;15.19;85.14;102638.50;1027088;28;20039;-73
2022/08/10 00:31:32;;;;;;;14.55;2.17;;;;;;;15.15;85.14;102638.91;1027273;28;20035;-74
2022/08/10 00:32:24;;;;;;;11.35;2.53;;;;;;;15.16;85.43;102637.06;1026697;28;20050;-74
2022/08/10 00:32:56;;;;;;;3.88;1.77;;;;;;;15.14;85.65;102636.44;1022188;29;20601;-74
2022/08/10 00:33:27;;;;;;;3.28;1.85;;;;;;;15.11;85.33;102635.00;1015387;29;20044;-74
2022/08/10 00:33:59;;;;;;;1.55;1.45;;;;;;;15.11;85.42;102636.84;1018040;29;20044;-74
2022/08/10 00:34:32;;;;;;;2.42;1.88;;;;;;;15.10;85.29;102643.25;1019979;28;20043;-74
2022/08/10 00:35:04;;;;;;;1.40;1.30;;;;;;;15.10;85.40;102629.81;1028199;28;20042;-74
2022/08/10 00:35:36;;;;;;;1.80;1.70;;;;;;;15.09;85.40;102634.38;1035175;28;20149;-74
2022/08/10 00:36:08;;;;;;;2.50;1.98;;;;;;;15.08;85.66;102632.72;1030683;28;20046;-74
2022/08/10 00:36:40;;;;;;;1.40;1.30;;;;;;;15.05;85.64;102635.78;1031139;28;20046;-74
2022/08/10 00:37:12;;;;;;;2.55;1.80;;;;;;;14.95;85.54;102632.66;1031313;28;20046;-74
2022/08/10 00:37:44;;;;;;;1.65;1.52;;;;;;;14.93;86.36;102634.72;1027556;28;20045;-74
2022/08/10 00:38:26;;;;;;;4.07;1.73;;;;;;;15.02;86.16;102635.34;1030787;28;20054;-74
2022/08/10 00:38:58;;;;;;;1.98;1.75;;;;;;;15.02;85.92;102629.97;1026967;28;20565;-73
2022/08/10 00:39:30;;;;;;;2.38;1.45;;;;;;;14.94;86.19;102636.38;1029128;28;20043;-74
2022/08/10 00:40:07;;;;;;;1.67;1.55;;;;;;;14.88;86.36;102631.81;1027359;28;20050;-74
2022/08/10 00:40:39;;;;;;;3.15;1.73;;;;;;;14.68;86.32;102637.09;1024205;28;20434;-74
2022/08/10 00:41:10;;;;;;;2.00;1.77;;;;;;;14.67;86.63;102634.59;1030276;28;20588;-74
2022/08/10 00:41:42;;;;;;;1.92;1.83;;;;;;;14.62;87.10;102637.06;1032636;28;20042;-74
2022/08/10 00:42:14;;;;;;;2.72;1.90;;;;;;;14.58;87.40;102638.50;1034945;28;20049;-74
2022/08/10 00:42:46;;;;;;;2.20;2.00;;;;;;;14.42;88.16;102640.41;1035496;28;20045;-74
2022/08/10 00:43:17;;;;;;;2.25;1.70;;;;;;;14.48;88.59;102631.63;1035573;28;20050;-74
2022/08/10 00:43:54;;;;;;;2.40;2.20;;;;;;;14.44;88.17;102635.72;1027373;28;20049;-74
2022/08/10 00:44:26;;;;;;;1.60;1.50;;;;;;;14.37;89.17;102642.88;1026947;28;20108;-74
2022/08/10 00:44:57;;;;;;;2.20;2.05;;;;;;;14.46;89.03;102638.19;1026989;28;20075;-74
2022/08/10 00:45:29;;;;;;;1.60;1.50;;;;;;;14.63;87.98;102628.81;1029689;28;20039;-74
2022/08/10 00:46:01;;;;;;;4.05;2.13;;;;;;;14.62;87.50;102640.56;1032634;28;20038;-74
2022/08/10 00:46:32;;;;;;;2.72;1.42;;;;;;;14.56;87.71;102632.50;1030963;28;20042;-74
2022/08/10 00:47:05;;;;;;;1.95;1.73;;;;;;;14.55;88.60;102631.66;1031075;28;20076;-74
2022/08/10 00:47:36;;;;;;;1.70;1.60;;;;;;;14.50;88.44;102631.41;1031278;28;20051;-74
2022/08/10 00:48:08;;;;;;;1.80;1.65;;;;;;;14.46;88.56;102633.66;1031179;28;20034;-74
2022/08/10 00:48:39;;;;;;;1.98;1.88;;;;;;;14.28;88.88;102633.34;1035305;28;20049;-74
2022/08/10 00:49:12;;;;;;;2.97;1.80;;;;;;;14.34;89.43;102629.88;1031264;28;20046;-74
2022/08/10 00:49:44;;;;;;;2.25;1.25;;;;;;;14.36;88.85;102633.19;1030681;28;20057;-74
2022/08/10 00:50:16;;;;;;;4.43;1.85;;;;;;;14.28;89.39;102633.34;1030917;28;20038;-73
2022/08/10 00:50:48;;;;;;;1.73;1.50;;;;;;;14.31;90.16;102635.63;1031782;28;20045;-74
2022/08/10 00:51:20;;;;;;;2.50;2.30;;;;;;;14.19;89.98;102629.97;1034104;28;20054;-74
2022/08/10 00:52:12;;;;;;;1.77;1.67;;;;;;;14.20;90.04;102633.47;1034551;28;20042;-74
2022/08/10 00:52:44;;;;;;;1.88;1.40;;;;;;;14.19;90.84;102629.97;1027126;28;20526;-74
2022/08/10 00:53:16;;;;;;;1.73;1.42;;;;;;;14.35;90.91;102630.69;1026951;28;20042;-74
2022/08/10 00:53:48;;;;;;;2.55;2.00;;;;;;;14.27;90.21;102633.53;1026861;28;20042;-74
2022/08/10 00:54:20;;;;;;;1.50;1.40;;;;;;;14.28;89.83;102630.66;1027937;28;20042;-74
2022/08/10 00:54:55;;;;;;;3.65;1.58;;;;;;;14.50;89.88;102634.09;1028554;28;20047;-73
2022/08/10 00:55:27;;;;;;;2.45;1.42;;;;;;;14.52;89.48;102632.91;1030823;28;20121;-73
2022/08/10 00:56:00;;;;;;;4.68;2.45;;;;;;;14.59;89.32;102627.56;1031099;28;20069;-73
2022/08/10 00:56:51;;;;;;;1.60;1.50;;;;;;;14.60;88.49;102633.75;1031139;28;20042;-74
2022/08/10 00:57:43;;;;;;;1.67;1.58;;;;;;;14.71;88.18;102633.16;1030937;28;20556;-74
2022/08/10 00:58:15;;;;;;;3.97;2.00;;;;;;;14.74;87.92;102628.22;1030869;28;20046;-73
2022/08/10 00:58:46;;;;;;;2.10;2.00;;;;;;;14.69;87.31;102632.53;1030859;28;20038;-74
2022/08/10 00:59:18;;;;;;;1.80;1.67;;;;;;;14.73;87.27;102633.78;1032184;28;20133;-74
2022/08/10 00:59:51;;;;;;;2.00;1.90;;;;;;;14.77;87.10;102630.50;1034740;28;20042;-74
2022/08/10 01:00:30;;;;;;;3.08;1.70;;;;;;;14.72;86.94;102634.81;1035248;28;20084;-73
2022/08/10 01:01:02;;;;;;;3.20;1.88;;;;;;;14.69;87.13;102635.22;1031297;28;20050;-74
2022/08/10 01:01:34;;;;;;;3.22;1.77;;;;;;;14.59;87.55;102632.09;1028552;28;20047;-74
2022/08/10 01:02:30;;;;;;;1.67;1.58;;;;;;;14.46;87.81;102636.34;1031036;28;20045;-73
2022/08/10 01:03:03;;;;;;;2.38;1.50;;;;;;;14.58;88.64;102635.81;1034903;28;20046;-74
2022/08/10 01:03:35;;;;;;;4.20;1.60;;;;;;;14.56;88.14;102624.44;1035007;28;20181;-74
2022/08/10 01:04:26;;;;;;;3.75;1.67;;;;;;;14.59;87.99;102627.56;1035172;28;20098;-74
2022/08/10 01:05:19;;;;;;;7.30;1.80;;;;;;;14.48;88.60;102631.63;1035282;28;20081;-74
2022/08/10 01:06:00;;;;;;;1.70;1.60;;;;;;;14.42;89.16;102629.69;1030975;28;20042;-74
2022/08/10 01:06:44;;;;;;;;;;;;;;;14.44;88.97;102627.69;1031495;28;20046;-74
2022/08/10 01:07:22;;;;;;;1.67;1.58;;;;;;;14.45;88.52;102631.19;1031041;28;19922;-74
2022/08/10 01:08:13;;;;;;;2.85;1.88;;;;;;;14.28;88.62;102636.03;1032896;28;20042;-74
2022/08/10 01:08:54;;;;;;;8.57;2.95;;;;;;;14.34;88.96;102621.81;1034956;28;20418;-73
2022/08/10 01:09:36;;;;;;;7.03;1.83;;;;;;;14.37;88.46;102625.97;1035088;28;20037;-74
2022/08/10 01:10:35;;;;;;;6.18;2.22;;;;;;;14.37;89.55;102629.47;1027219;28;20035;-73
2022/08/10 01:11:30;;;;;;;8.57;1.65;;;;;;;14.29;89.28;102626.13;1025733;28;20062;-74
2022/08/10 01:12:53;;;;;;;4.25;2.22;;;;;;;14.18;89.28;102627.47;1030112;28;20046;-74
2022/08/10 01:13:33;;;;;;;10.35;1.58;;;;;;;14.24;90.77;102624.00;1027073;28;20551;-74
2022/08/10 01:14:37;;;;;;;2.35;2.10;;;;;;;14.19;90.00;102626.47;1030940;28;20049;-74
2022/08/10 01:15:18;;;;;;;1.73;1.63;;;;;;;14.24;90.30;102618.66;1028518;28;20038;-74
2022/08/10 01:16:03;;;;;;;1.70;1.60;;;;;;;14.40;89.98;102618.34;1024857;28;20047;-74
2022/08/10 01:16:40;;;;;;;3.80;1.52;;;;;;;14.32;89.57;102621.19;1021103;29;20044;-73
2022/08/10 01:17:16;;;;;;;2.25;1.80;;;;;;;14.37;89.72;102624.09;1022520;29;20056;-74
2022/08/10 01:17:58;;;;;;;1.60;1.50;;;;;;;14.36;88.74;102622.44;1018578;29;20515;-74
2022/08/10 01:18:39;;;;;;;1.70;1.60;;;;;;;14.42;89.38;102620.81;1019961;28;20083;-74
2022/08/10 01:19:35;;;;;;;3.60;1.60;;;;;;;14.21;89.26;102619.03;1024173;28;20436;-74
2022/08/10 01:20:37;;;;;;;1.67;1.50;;;;;;;14.24;89.60;102624.00;1030088;28;20045;-74
2022/08/10 01:21:23;;;;;;;1.73;1.63;;;;;;;14.32;89.88;102625.72;1029993;28;20096;-74
2022/08/10 01:22:32;;;;;;;1.30;1.20;;;;;;;14.28;89.38;102625.31;1031304;28;20445;-74
2022/08/10 01:23:37;;;;;;;1.70;1.52;;;;;;;14.21;89.41;102625.22;1034367;28;20103;-73
2022/08/10 01:24:46;;;;;;;2.28;2.08;;;;;;;14.27;89.95;102623.66;1031354;28;20042;-74
2022/08/10 01:25:25;;;;;;;1.60;1.38;;;;;;;14.32;90.02;102620.38;1031310;28;20426;-73
2022/08/10 01:26:08;;;;;;;1.65;1.55;;;;;;;14.35;89.16;102618.13;1034489;28;20412;-73
2022/08/10 01:27:12;;;;;;;1.55;1.45;;;;;;;14.22;89.51;102620.69;1035935;28;20049;-74
2022/08/10 01:27:44;;;;;;;1.35;1.25;;;;;;;14.10;90.73;102616.94;1032030;28;20038;-74
2022/08/10 01:28:40;;;;;;;2.05;1.90;;;;;;;13.99;90.37;102620.97;1031618;28;20038;-74
2022/08/10 01:29:11;;;;;;;2.58;1.25;;;;;;;13.95;90.72;102618.88;1031587;28;20050;-74
2022/08/10 01:29:52;;;;;;;3.10;1.65;;;;;;;14.06;91.51;102619.16;1035353;28;20057;-74
2022/08/10 01:30:27;;;;;;;2.97;1.27;;;;;;;14.03;90.68;102613.38;1033810;28;20057;-74
2022/08/10 01:31:00;;;;;;;2.33;1.75;;;;;;;14.10;90.88;102622.28;1027934;28;20050;-74
2022/08/10 01:31:44;;;;;;;3.55;1.80;;;;;;;14.06;91.52;102611.13;1031746;28;20053;-74
2022/08/10 01:32:25;;;;;;;1.73;1.63;;;;;;;14.15;90.82;102626.03;1027576;28;20070;-74
2022/08/10 01:33:09;;;;;;;3.28;1.83;;;;;;;14.25;91.00;102614.97;1022617;29;20043;-75
2022/08/10 01:33:51;;;;;;;1.75;1.65;;;;;;;14.23;90.61;102612.47;1022410;29;20500;-74
2022/08/10 01:34:48;;;;;;;2.28;2.05;;;;;;;14.23;89.70;102606.28;1024859;28;20050;-74
2022/08/10 01:35:37;;;;;;;2.28;1.88;;;;;;;14.20;89.96;102612.84;1030581;28;20039;-74
2022/08/10 01:36:13;;;;;;;1.77;1.67;;;;;;;14.18;90.35;102612.22;1025778;28;20051;-74
2022/08/10 01:36:50;;;;;;;2.97;2.10;;;;;;;14.13;90.11;102609.31;1027541;28;20042;-74
2022/08/10 01:37:25;;;;;;;1.70;1.60;;;;;;;14.18;90.23;102611.41;1023416;29;20138;-74
2022/08/10 01:38:03;;;;;;;1.45;1.30;;;;;;;14.07;90.49;102606.59;1022058;29;20681;-73
2022/08/10 01:38:44;;;;;;;2.88;2.13;;;;;;;13.86;90.44;102610.16;1019636;29;20048;-74
2022/08/10 01:39:22;;;;;;;1.77;1.67;;;;;;;13.89;90.83;102607.09;1019345;29;20180;-74
2022/08/10 01:39:57;;;;;;;2.20;2.00;;;;;;;13.96;91.05;102610.63;1031564;28;20065;-74
2022/08/10 01:40:31;;;;;;;2.55;1.98;;;;;;;13.92;91.48;102604.84;1034738;28;20034;-73
2022/08/10 01:41:10;;;;;;;3.25;1.65;;;;;;;13.96;91.45;102604.44;1031607;28;20038;-74
2022/08/10 01:41:43;;;;;;;2.35;2.15;;;;;;;13.96;91.40;102612.47;1026786;28;20042;-74
2022/08/10 01:42:19;;;;;;;2.50;2.30;;;;;;;14.01;91.38;102613.56;1027643;28;20047;-74
2022/08/10 01:42:52;;;;;;;2.28;2.08;;;;;;;14.02;91.40;102609.03;1028697;28;20116;-74
2022/08/10 01:43:26;;;;;;;2.50;2.30;;;;;;;14.03;91.55;102605.34;1022875;28;20523;-73
2022/08/10 01:44:08;;;;;;;2.47;2.28;;;;;;;14.18;91.30;102603.38;1027747;28;20438;-74
2022/08/10 01:45:04;;;;;;;3.40;2.85;;;;;;;14.14;91.35;102607.47;1023879;29;20494;-74
2022/08/10 01:45:40;;;;;;;2.97;2.72;;;;;;;14.12;91.60;102604.97;1025359;28;20420;-74
2022/08/10 01:46:16;;;;;;;3.92;2.22;;;;;;;14.14;91.13;102604.78;1025084;28;20130;-74
2022/08/10 01:46:50;;;;;;;3.28;2.50;;;;;;;14.14;91.61;102602.94;1031328;28;20034;-73
2022/08/10 01:48:41;;;;;;;2.20;2.00;;;;;;;14.10;92.01;102599.00;1019216;29;20048;-74
2022/08/10 01:49:15;;;;;;;2.72;2.50;;;;;;;14.01;91.06;102602.84;1020102;28;20047;-74
2022/08/10 01:49:48;;;;;;;3.15;2.55;;;;;;;13.98;91.86;102595.22;1025313;28;20039;-74
2022/08/10 01:50:25;;;;;;;5.95;3.00;;;;;;;14.00;92.37;102600.38;1027424;28;20426;-74
2022/08/10 01:51:07;;;;;;;2.13;2.00;;;;;;;13.99;92.05;102604.09;1028912;28;20043;-74
2022/08/10 01:51:41;;;;;;;3.00;1.95;;;;;;;13.97;92.65;102598.06;1031389;28;20471;-73
2022/08/10 01:52:15;;;;;;;4.43;2.28;;;;;;;13.81;92.30;102602.72;1024640;28;20047;-74
2022/08/10 01:52:52;;;;;;;2.65;2.30;;;;;;;13.72;92.47;102601.19;1021823;29;20107;-74
2022/08/10 01:53:32;;;;;;;3.65;3.03;;;;;;;13.73;92.70;102604.72;1019678;29;20053;-74
2022/08/10 01:54:13;;;;;;;2.85;2.65;;;;;;;13.80;92.88;102601.06;1019374;29;20054;-74
2022/08/10 01:54:46;;;;;;;3.00;2.80;;;;;;;13.85;93.40;102603.13;1020276;29;20127;-73
2022/08/10 01:55:19;;;;;;;3.58;2.70;;;;;;;13.84;93.35;102602.31;1019521;29;20055;-73
2022/08/10 01:55:53;;;;;;;3.08;2.80;;;;;;;13.81;93.22;102602.72;1019159;29;20040;-73
2022/08/10 01:56:28;;;;;;;3.00;2.75;;;;;;;13.73;93.56;102605.53;1012876;29;20041;-73
2022/08/10 01:57:01;;;;;;;2.92;2.55;;;;;;;13.63;93.77;102599.66;1013497;29;20048;-74
2022/08/10 01:57:33;;;;;;;5.25;3.85;;;;;;;13.52;94.22;102608.22;1017027;29;20107;-74
2022/08/10 01:58:06;;;;;;;3.00;2.80;;;;;;;13.57;94.17;102611.16;1017082;29;21525;-74
2022/08/10 01:58:37;;;;;;;3.00;2.80;;;;;;;13.59;95.00;102603.75;1024399;28;20527;-74
2022/08/10 01:59:15;;;;;;;4.43;3.22;;;;;;;13.68;94.62;102605.25;1023599;29;20411;-74
2022/08/10 01:59:48;;;;;;;3.03;2.83;;;;;;;13.50;94.63;102599.56;1021189;29;20051;-74
2022/08/10 02:00:37;;;;;;;3.30;3.10;;;;;;;13.54;94.72;102600.84;1023644;29;20085;-73
2022/08/10 02:01:13;;;;;;;5.57;3.35;;;;;;;13.51;94.49;102602.06;1020149;29;20051;-74
2022/08/10 02:01:51;;;;;;;3.38;3.08;;;;;;;13.51;94.61;102602.06;1027647;28;20043;-74
2022/08/10 02:02:24;;;;;;;3.35;3.00;;;;;;;13.39;95.29;102597.38;1023816;29;20047;-74
2022/08/10 02:02:57;;;;;;;5.55;3.00;;;;;;;13.34;95.54;102597.13;1025710;28;20075;-74
2022/08/10 02:03:30;;;;;;;3.28;3.08;;;;;;;13.26;96.05;102593.56;1027128;28;20046;-73
2022/08/10 02:04:06;;;;;;;6.45;3.53;;;;;;;13.26;95.70;102598.94;1027992;28;20066;-74
2022/08/10 02:04:39;;;;;;;3.35;3.10;;;;;;;13.28;96.19;102599.56;1025598;28;20043;-74
2022/08/10 02:05:14;;;;;;;5.65;3.53;;;;;;;13.29;95.97;102601.22;1021436;29;20098;-74
2022/08/10 02:05:49;;;;;;;4.10;3.80;;;;;;;13.38;96.38;102601.09;1019388;29;20047;-74
2022/08/10 02:06:21;;;;;;;5.15;3.90;;;;;;;13.38;95.36;102595.72;1020619;29;20106;-74
2022/08/10 02:06:54;;;;;;;3.45;3.15;;;;;;;13.41;95.27;102600.69;1021458;29;20053;-73
2022/08/10 02:07:28;;;;;;;3.83;3.53;;;;;;;13.45;95.40;102602.00;1019758;29;20043;-74
2022/08/10 02:08:01;;;;;;;3.75;3.45;;;;;;;13.46;94.88;102606.34;1021704;29;20232;-74
2022/08/10 02:08:34;;;;;;;4.15;3.08;;;;;;;13.42;94.95;102600.53;1019636;29;20044;-74
2022/08/10 02:09:06;;;;;;;4.15;3.75;;;;;;;13.45;95.15;102597.47;1021135;29;20473;-74
2022/08/10 02:09:44;;;;;;;3.85;3.42;;;;;;;13.45;94.92;102596.66;1027292;28;20485;-74
2022/08/10 02:10:18;;;;;;;3.20;2.90;;;;;;;13.35;95.02;102596.94;1027899;28;20042;-73
2022/08/10 02:10:51;;;;;;;4.40;2.95;;;;;;;13.33;95.47;102598.16;1023691;29;20039;-73
2022/08/10 02:11:24;;;;;;;4.10;3.67;;;;;;;13.38;94.90;102595.72;1023514;29;20556;-74
2022/08/10 02:12:00;;;;;;;4.40;3.50;;;;;;;13.44;95.11;102597.66;1021668;29;20040;-74
2022/08/10 02:12:41;;;;;;;5.43;3.67;;;;;;;13.39;94.89;102597.38;1026081;28;20126;-74
2022/08/10 02:13:14;;;;;;;4.55;3.60;;;;;;;13.24;94.64;102592.13;1023567;29;20047;-74
2022/08/10 02:13:50;;;;;;;4.68;2.88;;;;;;;13.17;95.03;102605.44;1022843;29;20082;-74
2022/08/10 02:14:28;;;;;;;3.45;3.15;;;;;;;13.11;95.67;102595.44;1019438;29;20039;-73
2022/08/10 02:15:07;;;;;;;2.95;2.75;;;;;;;13.06;95.30;102600.53;1020885;29;20063;-73
2022/08/10 02:15:40;;;;;;;4.50;3.30;;;;;;;12.97;96.22;102604.34;1023863;29;20043;-74
2022/08/10 02:16:32;;;;;;;3.92;3.55;;;;;;;13.00;96.04;102601.28;1023539;29;20035;-73
2022/08/10 02:17:08;;;;;;;2.90;2.70;;;;;;;12.99;96.34;102596.97;1019372;29;20043;-74
2022/08/10 02:18:02;;;;;;;3.70;3.38;;;;;;;12.91;97.35;102587.22;1025651;28;20368;-73
2022/08/10 02:18:34;;;;;;;3.97;3.58;;;;;;;12.96;97.08;102600.03;1023411;29;20039;-73
2022/08/10 02:19:06;;;;;;;4.20;3.83;;;;;;;12.83;97.51;102597.19;1027448;28;20066;-73
2022/08/10 02:19:43;;;;;;;9.85;4.05;;;;;;;12.83;97.10;102598.00;1027026;28;20497;-74
2022/08/10 02:20:17;;;;;;;3.47;3.17;;;;;;;12.85;97.63;102595.13;1028812;28;20529;-74
2022/08/10 02:20:50;;;;;;;13.82;4.82;;;;;;;12.81;97.90;102600.03;1029103;28;20043;-74
2022/08/10 02:21:24;;;;;;;5.80;4.35;;;;;;;12.79;97.86;102602.06;1027819;28;20066;-74
2022/08/10 02:21:57;;;;;;;4.20;3.90;;;;;;;12.80;98.40;102603.72;1027538;28;20043;-78
2022/08/10 02:22:55;;;;;;;4.32;3.92;;;;;;;12.79;98.78;102595.91;1027581;28;20047;-78
2022/08/10 02:23:32;;;;;;;3.83;3.53;;;;;;;12.78;98.51;102596.91;1031207;28;20439;-78
2022/08/10 02:24:07;;;;;;;4.55;4.13;;;;;;;12.66;99.31;102597.41;1027481;28;20046;-78
2022/08/10 02:24:40;;;;;;;5.05;4.47;;;;;;;12.69;99.32;102601.56;1023584;29;20103;-78
2022/08/10 02:25:13;;;;;;;5.80;5.20;;;;;;;12.69;99.23;102597.03;1019906;29;20039;-78
2022/08/10 02:26:06;;;;;;;5.85;4.38;;;;;;;12.78;99.91;102599.59;1023731;29;20129;-78
2022/08/10 02:26:40;;;;;;;5.47;4.85;;;;;;;12.88;99.45;102600.16;1027390;28;20039;-78
2022/08/10 02:27:13;;;;;;;5.85;4.72;;;;;;;12.89;99.64;102601.81;1027024;28;20410;-78
2022/08/10 02:27:45;;;;;;;5.78;5.10;;;;;;;12.92;99.22;102590.72;1027546;28;20046;-78
2022/08/10 02:28:19;;;;;;;4.97;4.55;;;;;;;12.88;99.15;102600.16;1023586;29;20058;-78
2022/08/10 02:29:01;;;;;;;4.90;4.50;;;;;;;12.80;98.79;102602.91;1021742;29;20039;-78
2022/08/10 02:29:33;;;;;;;5.32;4.88;;;;;;;12.75;98.85;102600.78;1023773;29;20206;-78
2022/08/10 02:30:07;;;;;;;5.18;4.75;;;;;;;12.81;99.30;102604.56;1025348;28;20057;-78
2022/08/10 02:30:39;;;;;;;6.03;5.43;;;;;;;12.88;98.99;102608.16;1029834;28;20054;-78
2022/08/10 02:31:16;;;;;;;5.55;5.05;;;;;;;12.88;98.56;102608.16;1031248;28;20445;-78
2022/08/10 02:31:53;;;;;;;5.75;5.18;;;;;;;12.81;98.41;102601.88;1027576;28;20082;-78
2022/08/10 02:32:26;;;;;;;5.75;5.18;;;;;;;12.80;98.58;102600.22;1027433;28;20050;-78
2022/08/10 02:33:08;;;;;;;4.95;4.47;;;;;;;12.63;98.97;102602.31;1023414;29;20047;-78
2022/08/10 02:33:44;;;;;;;9.23;5.60;;;;;;;12.57;99.20;102609.19;1022719;29;20454;-78
2022/08/10 02:34:28;;;;;;;5.53;4.80;;;;;;;12.57;99.52;102606.53;1019170;29;20423;-78
2022/08/10 02:35:03;;;;;;;16.58;5.80;;;;;;;12.44;99.51;102606.38;1023529;29;20053;-78
2022/08/10 02:35:36;;;;;;;14.00;5.85;;;;;;;12.46;99.79;102612.34;1022950;29;20042;-78
2022/08/10 02:36:28;;;;;;;18.50;6.93;;;;;;;12.52;100.00;102603.59;1023230;28;20510;-78
2022/08/10 02:37:02;;;;;;;20.00;7.15;;;;;;;12.46;100.00;102607.00;1018968;29;20432;-79
2022/08/10 02:37:45;;;;;;;10.18;5.47;;;;;;;12.53;100.00;102607.09;1024000;28;20086;-78
2022/08/10 02:38:22;;;;;;;22.88;6.18;;;;;;;12.49;100.00;102613.81;1023085;29;20514;-78
2022/08/10 02:39:15;;;;;;;12.40;5.47;;;;;;;12.49;100.00;102609.31;1023062;29;20039;-78
2022/08/10 02:39:47;;;;;;;17.08;5.57;;;;;;;12.50;100.00;102613.63;1019552;29;20044;-78
2022/08/10 02:40:19;;;;;;;16.50;5.95;;;;;;;12.57;100.00;102609.19;1019612;29;20431;-78
2022/08/10 02:41:13;;;;;;;6.22;5.60;;;;;;;12.62;99.93;102601.47;1027812;28;20051;-78
2022/08/10 02:42:12;;;;;;;9.25;5.65;;;;;;;12.63;100.00;102613.00;1025345;28;20039;-78
2022/08/10 02:43:26;;;;;;;8.75;5.53;;;;;;;12.62;100.00;102606.81;1028876;28;20510;-78
2022/08/10 02:44:55;;;;;;;7.53;5.07;;;;;;;12.45;100.00;102610.69;1027342;28;20054;-79
2022/08/10 02:45:55;;;;;;;10.77;5.60;;;;;;;12.42;100.00;102605.72;1028249;28;20410;-74
2022/08/10 02:46:48;;;;;;;5.25;4.55;;;;;;;12.42;100.00;102611.06;1027432;28;20498;-74
2022/08/10 02:47:31;;;;;;;7.68;5.30;;;;;;;12.45;100.00;102616.03;1027208;28;20047;-78
2022/08/10 02:48:31;;;;;;;5.93;4.97;;;;;;;12.37;100.00;102616.97;1029852;28;20050;-74
2022/08/10 02:49:04;;;;;;;11.77;5.95;;;;;;;12.43;100.00;102607.38;1027515;28;20042;-74
2022/08/10 02:49:41;;;;;;;7.13;5.68;;;;;;;12.52;100.00;102603.59;1023381;28;20110;-74
2022/08/10 02:50:25;;;;;;;11.80;6.68;;;;;;;12.45;100.00;102610.69;1022742;29;20551;-74
2022/08/10 02:51:00;;;;;;;7.18;6.47;;;;;;;12.45;100.00;102610.69;1023793;29;20035;-74
2022/08/10 02:51:41;;;;;;;11.68;7.20;;;;;;;12.49;100.00;102609.31;1022747;29;20043;-74
2022/08/10 02:52:45;;;;;;;7.72;6.13;;;;;;;12.47;100.00;102608.66;1017834;29;20052;-74
2022/08/10 02:53:26;;;;;;;8.48;6.88;;;;;;;12.41;100.00;102614.75;1025222;28;20038;-74
2022/08/10 02:54:29;;;;;;;9.80;6.55;;;;;;;12.48;100.00;102599.63;1027519;28;20105;-74
2022/08/10 02:55:06;;;;;;;9.55;6.70;;;;;;;12.48;100.00;102604.97;1026963;28;20053;-74
2022/08/10 02:55:57;;;;;;;16.67;7.70;;;;;;;12.39;100.00;102606.09;1027445;28;20086;-74
2022/08/10 02:56:33;;;;;;;15.65;6.32;;;;;;;12.41;100.00;102614.75;1026940;28;20038;-74
2022/08/10 02:57:21;;;;;;;9.25;7.15;;;;;;;12.33;100.00;102605.00;1031276;28;20046;-74
2022/08/10 02:57:55;;;;;;;9.30;7.47;;;;;;;12.28;100.00;102607.38;1027273;28;20415;-74
2022/08/10 02:58:52;;;;;;;10.30;7.13;;;;;;;12.28;100.00;102611.88;1027067;28;20440;-74
2022/08/10 02:59:30;;;;;;;13.52;6.60;;;;;;;12.30;100.00;102612.53;1023041;29;20832;-74
2022/08/10 03:00:11;;;;;;;20.58;6.75;;;;;;;12.18;100.00;102603.31;1027073;28;20061;-74